createdAt,value
2018-07-05T00:01:40.700Z,52.09
2018-07-05T00:04:20.341Z,52.86
2018-07-05T00:06:59.872Z,52.51
2018-07-05T00:09:40.447Z,52.92
2018-07-05T00:12:20.159Z,53.04
2018-07-05T00:14:59.693Z,53.54
2018-07-05T00:17:39.386Z,53.12
2018-07-05T00:20:18.955Z,53.79
2018-07-05T00:22:58.465Z,53.47
2018-07-05T00:25:38.007Z,54.11
2018-07-05T00:28:17.567Z,53.89
2018-07-05T00:30:57.003Z,53.95
2018-07-05T00:33:36.651Z,54.17
2018-07-05T00:36:16.186Z,54.22
2018-07-05T00:38:55.939Z,54.37
2018-07-05T00:41:35.369Z,54.11
2018-07-05T00:44:14.823Z,55.00
2018-07-05T00:46:54.269Z,54.77
2018-07-05T00:49:33.822Z,54.79
2018-07-05T00:52:13.457Z,54.98
2018-07-05T00:54:53.034Z,55.06
2018-07-05T00:57:32.607Z,55.07
2018-07-05T01:00:12.273Z,54.53
2018-07-05T01:02:51.812Z,54.81
2018-07-05T01:05:31.330Z,55.21
2018-07-05T01:08:10.972Z,54.99
2018-07-05T01:10:50.519Z,54.58
2018-07-05T01:13:29.983Z,54.42
2018-07-05T01:16:09.494Z,54.92
2018-07-05T01:18:49.043Z,54.93
2018-07-05T01:21:28.646Z,55.14
2018-07-05T01:24:08.186Z,54.57
2018-07-05T01:26:47.873Z,54.64
2018-07-05T01:29:27.424Z,55.10
2018-07-05T01:32:06.993Z,55.04
2018-07-05T01:34:46.999Z,55.04
2018-07-05T01:37:26.525Z,54.71
2018-07-05T01:40:06.160Z,54.92
2018-07-05T01:42:45.599Z,55.21
2018-07-05T01:45:25.121Z,54.86
2018-07-05T01:48:04.790Z,55.51
2018-07-05T01:50:44.457Z,55.41
2018-07-05T01:53:23.891Z,55.62
2018-07-05T01:56:03.549Z,55.70
2018-07-05T01:58:43.706Z,56.03
2018-07-05T02:01:23.375Z,55.38
2018-07-05T02:04:02.974Z,55.16
2018-07-05T02:06:42.440Z,55.42
2018-07-05T02:09:21.927Z,55.60
2018-07-05T02:12:01.496Z,55.01
2018-07-05T02:14:41.056Z,54.91
2018-07-05T02:17:20.568Z,54.81
2018-07-05T02:20:00.157Z,55.69
2018-07-05T02:22:39.668Z,55.67
2018-07-05T02:25:19.218Z,55.26
2018-07-05T02:27:58.762Z,55.54
2018-07-05T02:30:38.201Z,55.13
2018-07-05T02:33:17.772Z,54.90
2018-07-05T02:35:57.296Z,54.88
2018-07-05T02:38:36.725Z,55.28
2018-07-05T02:41:16.278Z,55.03
2018-07-05T02:43:55.906Z,55.13
2018-07-05T02:46:35.550Z,55.11
2018-07-05T02:49:15.102Z,54.28
2018-07-05T02:51:54.545Z,54.58
2018-07-05T02:54:34.261Z,54.98
2018-07-05T02:57:13.966Z,54.33
2018-07-05T02:59:54.514Z,53.73
2018-07-05T03:02:34.035Z,54.47
2018-07-05T03:05:13.518Z,54.03
2018-07-05T03:07:53.050Z,54.26
2018-07-05T03:10:32.538Z,54.05
2018-07-05T03:13:12.089Z,54.43
2018-07-05T03:15:51.532Z,54.22
2018-07-05T03:18:31.048Z,54.17
2018-07-05T03:21:10.714Z,54.99
2018-07-05T03:23:50.248Z,54.74
2018-07-05T03:26:29.747Z,54.86
2018-07-05T03:29:09.283Z,55.32
2018-07-05T03:31:48.815Z,55.42
2018-07-05T03:34:28.348Z,54.58
2018-07-05T03:37:07.861Z,55.23
2018-07-05T03:39:47.325Z,55.27
2018-07-05T03:45:22.459Z,55.53
2018-07-05T03:48:01.981Z,55.27
2018-07-05T03:56:00.134Z,54.85
2018-07-05T03:58:39.725Z,54.67
2018-07-05T04:01:19.422Z,54.78
2018-07-05T04:03:59.105Z,54.63
2018-07-05T04:06:38.610Z,54.28
2018-07-05T04:09:18.449Z,54.13
2018-07-05T04:11:58.001Z,54.47
2018-07-05T04:14:37.424Z,54.38
2018-07-05T04:17:16.854Z,54.34
2018-07-05T05:42:05.436Z,45.03
2018-07-05T05:44:46.061Z,44.21
2018-07-05T05:47:25.709Z,44.33
2018-07-05T05:50:05.344Z,44.00
2018-07-05T05:52:44.901Z,44.34
2018-07-05T05:55:24.282Z,43.47
2018-07-05T05:58:03.919Z,43.73
2018-07-05T06:00:43.329Z,43.20
2018-07-05T06:03:22.817Z,43.22
2018-07-05T06:06:02.381Z,43.24
2018-07-05T06:08:41.858Z,42.67
2018-07-05T06:11:21.462Z,42.76
2018-07-05T06:14:00.965Z,43.01
2018-07-05T06:16:40.465Z,41.55
2018-07-05T06:19:20.023Z,41.64
2018-07-05T06:21:59.499Z,41.13
2018-07-05T06:24:39.145Z,45.18
2018-07-05T06:27:18.629Z,45.38
2018-07-05T06:29:58.295Z,46.51
2018-07-05T06:32:37.819Z,46.66
2018-07-05T06:35:17.342Z,46.89
2018-07-05T06:37:56.851Z,47.28
2018-07-05T06:40:36.489Z,46.48
2018-07-05T06:43:16.173Z,47.03
2018-07-05T06:45:55.741Z,46.75
2018-07-05T06:48:35.285Z,45.80
2018-07-05T06:51:14.794Z,45.76
2018-07-05T06:53:54.534Z,45.96
2018-07-05T06:56:34.109Z,44.89
2018-07-05T06:59:14.008Z,45.02
2018-07-05T07:01:53.638Z,45.77
2018-07-05T07:04:33.142Z,46.51
2018-07-05T07:07:12.848Z,45.98
2018-07-05T07:09:52.352Z,44.93
2018-07-05T07:12:31.951Z,44.70
2018-07-05T07:15:11.532Z,44.09
2018-07-05T07:17:51.174Z,44.35
2018-07-05T07:20:30.719Z,44.65
2018-07-05T07:23:10.318Z,42.99
2018-07-05T07:25:49.785Z,43.20
2018-07-05T07:28:30.182Z,44.44
2018-07-05T07:31:09.803Z,43.61
2018-07-05T07:33:49.353Z,43.28
2018-07-05T07:36:28.854Z,42.91
2018-07-05T07:39:08.320Z,43.56
2018-07-05T07:41:45.676Z,43.30
2018-07-05T07:44:13.060Z,42.26
2018-07-05T07:46:40.421Z,40.91
2018-07-05T07:49:07.762Z,40.76
2018-07-05T07:51:35.098Z,39.97
2018-07-05T07:54:02.454Z,41.05
2018-07-05T07:56:29.793Z,40.31
2018-07-05T07:58:57.104Z,40.93
2018-07-05T08:01:24.610Z,40.75
2018-07-05T08:03:51.914Z,40.65
2018-07-05T08:06:19.340Z,40.58
2018-07-05T08:08:46.734Z,40.59
2018-07-05T08:11:14.070Z,40.54
2018-07-05T08:13:41.413Z,39.72
2018-07-05T08:16:08.761Z,38.62
2018-07-05T08:18:36.066Z,38.99
2018-07-05T08:21:03.417Z,39.71
2018-07-05T08:23:30.738Z,39.59
2018-07-05T08:25:58.134Z,35.93
2018-07-05T08:28:25.449Z,35.44
2018-07-05T08:30:52.801Z,34.84
2018-07-05T08:33:20.195Z,35.22
2018-07-05T08:35:47.511Z,34.93
2018-07-05T08:38:14.840Z,34.76
2018-07-05T08:40:42.134Z,35.09
2018-07-05T08:43:09.526Z,34.61
2018-07-05T08:45:36.824Z,35.26
2018-07-05T08:48:04.198Z,35.06
2018-07-05T08:50:31.532Z,35.53
2018-07-05T08:52:58.821Z,34.62
2018-07-05T08:55:26.141Z,34.20
2018-07-05T08:57:53.472Z,32.01
2018-07-05T09:00:20.776Z,32.35
2018-07-05T09:02:48.098Z,33.07
2018-07-05T09:05:15.424Z,32.55
2018-07-05T09:07:42.925Z,33.57
2018-07-05T09:10:10.238Z,33.31
2018-07-05T09:12:37.555Z,33.07
2018-07-05T09:15:04.872Z,33.60
2018-07-05T09:17:32.294Z,32.71
2018-07-05T09:19:59.688Z,33.76
2018-07-05T09:22:27.012Z,33.24
2018-07-05T09:24:54.317Z,33.71
2018-07-05T09:27:21.677Z,33.69
2018-07-05T09:29:48.982Z,33.11
2018-07-05T09:32:16.280Z,33.98
2018-07-05T09:34:43.647Z,33.54
2018-07-05T09:37:11.027Z,32.72
2018-07-05T09:39:38.347Z,32.36
2018-07-05T09:42:05.666Z,32.42
2018-07-05T09:44:32.964Z,32.23
2018-07-05T09:47:00.310Z,32.47
2018-07-05T09:49:27.646Z,32.86
2018-07-05T09:51:54.968Z,31.89
2018-07-05T09:54:22.259Z,30.72
2018-07-05T09:56:49.647Z,30.73
2018-07-05T09:59:16.972Z,30.67
2018-07-05T10:01:44.365Z,30.81
2018-07-05T10:04:11.698Z,30.55
2018-07-05T10:06:38.972Z,30.32
2018-07-05T10:09:06.487Z,30.30
2018-07-05T10:11:34.072Z,30.47
2018-07-05T10:14:01.431Z,30.13
2018-07-05T10:16:29.012Z,29.82
2018-07-05T10:18:56.443Z,29.73
2018-07-05T10:21:25.886Z,29.86
2018-07-05T10:23:53.680Z,29.28
2018-07-05T10:26:21.030Z,29.21
2018-07-05T10:29:00.728Z,28.16
2018-07-05T10:31:40.406Z,28.79
2018-07-05T10:34:07.762Z,28.42
2018-07-05T10:36:35.058Z,27.47
2018-07-05T10:39:02.383Z,27.71
2018-07-05T10:41:41.805Z,27.80
2018-07-05T10:44:21.345Z,26.72
2018-07-05T10:47:01.058Z,26.42
2018-07-05T10:49:40.627Z,27.65
2018-07-05T10:52:20.147Z,28.33
2018-07-05T10:54:59.697Z,28.53
2018-07-05T10:57:40.258Z,28.47
2018-07-05T11:00:19.791Z,28.64
2018-07-05T11:02:59.227Z,28.64
2018-07-05T11:05:39.015Z,29.51
2018-07-05T11:08:18.547Z,28.97
2018-07-05T11:10:58.774Z,28.98
2018-07-05T11:13:38.345Z,28.45
2018-07-05T11:16:17.856Z,28.27
2018-07-05T11:18:57.394Z,27.64
2018-07-05T11:21:36.966Z,27.96
2018-07-05T11:24:16.471Z,28.39
2018-07-05T11:26:56.147Z,27.75
2018-07-05T11:29:35.684Z,27.37
2018-07-05T11:32:15.407Z,27.40
2018-07-05T11:34:54.969Z,26.58
2018-07-05T11:37:35.283Z,26.46
2018-07-05T11:40:14.951Z,25.92
2018-07-05T11:42:54.509Z,25.57
2018-07-05T11:45:34.065Z,25.63
2018-07-05T11:48:13.586Z,25.47
2018-07-05T11:50:53.157Z,25.14
2018-07-05T11:53:32.887Z,24.90
2018-07-05T11:56:13.141Z,25.26
2018-07-05T11:58:52.674Z,24.71
2018-07-05T12:01:32.207Z,23.89
2018-07-05T12:04:11.943Z,23.94
2018-07-05T12:06:51.322Z,22.64
2018-07-05T12:09:30.797Z,21.99
2018-07-05T12:12:10.302Z,22.53
2018-07-05T12:14:50.013Z,22.27
2018-07-05T12:17:29.586Z,22.14
2018-07-05T12:20:09.164Z,22.52
2018-07-05T12:22:48.656Z,22.94
2018-07-05T12:25:28.457Z,22.38
2018-07-05T12:28:08.069Z,21.31
2018-07-05T12:30:47.635Z,22.40
2018-07-05T12:33:27.563Z,22.48
2018-07-05T12:45:48.649Z,24.84
2018-07-05T12:48:29.520Z,24.90
2018-07-05T12:51:09.881Z,25.18
2018-07-05T12:53:49.361Z,25.07
2018-07-05T12:56:29.472Z,24.06
2018-07-05T12:59:09.035Z,23.34
2018-07-05T13:01:48.766Z,22.74
2018-07-05T13:04:28.293Z,22.92
2018-07-05T13:07:08.104Z,23.46
2018-07-05T13:09:47.630Z,24.60
2018-07-05T13:12:27.290Z,24.19
2018-07-05T13:15:06.890Z,24.43
2018-07-05T13:17:46.476Z,24.10
2018-07-05T13:20:26.104Z,24.66
2018-07-05T13:23:05.599Z,24.81
2018-07-05T13:25:45.149Z,24.52
2018-07-05T13:28:24.608Z,25.38
2018-07-05T13:31:04.049Z,25.38
2018-07-05T13:33:43.722Z,24.52
2018-07-05T13:36:23.234Z,25.06
2018-07-05T13:39:03.008Z,25.07
2018-07-05T13:41:42.649Z,24.65
2018-07-05T13:44:22.198Z,25.35
2018-07-05T13:47:01.811Z,24.57
2018-07-05T13:49:41.437Z,24.41
2018-07-05T13:52:20.959Z,25.21
2018-07-05T13:55:00.645Z,24.57
2018-07-05T13:57:40.182Z,24.87
2018-07-05T14:00:19.814Z,24.55
2018-07-05T14:03:00.255Z,23.66
2018-07-05T14:05:39.718Z,23.34
2018-07-05T14:08:19.245Z,23.45
2018-07-05T14:10:58.872Z,23.73
2018-07-05T14:13:38.627Z,23.07
2018-07-05T14:16:18.136Z,22.59
2018-07-05T14:18:57.664Z,20.80
2018-07-05T14:21:37.225Z,19.73
2018-07-05T14:24:16.790Z,18.67
2018-07-05T14:26:56.318Z,16.84
2018-07-05T14:29:35.865Z,16.09
2018-07-05T14:32:15.293Z,14.89
2018-07-05T14:34:54.842Z,15.60
2018-07-05T14:37:34.362Z,15.35
2018-07-05T14:40:14.075Z,16.32
2018-07-05T14:42:54.872Z,16.41
2018-07-05T14:45:34.385Z,17.73
2018-07-05T14:48:13.934Z,20.48
2018-07-05T14:50:53.436Z,22.25
2018-07-05T14:53:33.822Z,23.10
2018-07-05T14:56:13.344Z,21.40
2018-07-05T14:58:52.952Z,20.19
2018-07-05T15:01:33.020Z,17.72
2018-07-05T15:04:12.691Z,17.48
2018-07-05T15:06:52.084Z,16.91
2018-07-05T15:09:31.654Z,16.73
2018-07-05T15:12:11.316Z,17.08
2018-07-05T15:14:50.858Z,18.39
2018-07-05T15:17:30.376Z,19.46
2018-07-05T15:20:09.902Z,20.55
2018-07-05T15:22:49.606Z,20.42
2018-07-05T15:25:29.226Z,19.34
2018-07-05T15:28:08.867Z,19.40
2018-07-05T15:30:48.378Z,19.66
2018-07-05T15:33:28.018Z,19.93
2018-07-05T15:36:07.521Z,20.29
2018-07-05T15:38:47.174Z,22.06
2018-07-05T15:41:26.702Z,21.95
2018-07-05T15:44:06.106Z,20.92
2018-07-05T15:46:45.710Z,19.50
2018-07-05T15:49:25.215Z,19.36
2018-07-05T15:52:04.653Z,17.53
2018-07-05T15:54:44.200Z,16.44
2018-07-05T15:57:23.722Z,16.28
2018-07-05T16:00:03.227Z,16.41
2018-07-05T16:02:42.736Z,17.38
2018-07-05T16:05:22.302Z,18.61
2018-07-05T16:08:01.839Z,18.09
2018-07-05T16:10:41.393Z,19.21
2018-07-05T16:13:20.932Z,18.67
2018-07-05T16:16:00.509Z,18.96
2018-07-05T16:18:40.064Z,19.39
2018-07-05T16:21:19.538Z,20.12
2018-07-05T16:23:59.072Z,21.85
2018-07-05T16:26:38.661Z,21.72
2018-07-05T16:29:18.897Z,22.73
2018-07-05T16:31:58.368Z,22.58
2018-07-05T16:34:37.989Z,22.45
2018-07-05T16:37:17.640Z,22.28
2018-07-05T16:39:57.217Z,22.93
2018-07-05T16:42:36.732Z,23.77
2018-07-05T16:45:16.390Z,24.51
2018-07-05T16:47:55.887Z,25.06
2018-07-05T16:50:35.957Z,25.93
2018-07-05T16:53:15.459Z,26.21
2018-07-05T16:55:55.020Z,26.47
2018-07-05T16:58:36.247Z,26.78
2018-07-05T17:01:16.130Z,26.02
2018-07-05T17:03:55.815Z,26.16
2018-07-05T17:06:35.469Z,26.85
2018-07-05T17:09:15.152Z,29.11
2018-07-05T17:11:55.151Z,29.24
2018-07-05T17:14:35.294Z,31.88
2018-07-05T17:17:14.791Z,32.63
2018-07-05T17:19:54.298Z,33.01
2018-07-05T17:22:33.885Z,33.58
2018-07-05T17:25:13.420Z,34.40
2018-07-05T17:27:52.976Z,33.77
2018-07-05T17:30:32.543Z,34.95
2018-07-05T17:33:12.147Z,35.28
2018-07-05T17:35:51.684Z,36.78
2018-07-05T17:38:31.281Z,37.17
2018-07-05T17:41:10.921Z,37.77
2018-07-05T17:43:50.486Z,38.13
2018-07-05T17:46:30.011Z,38.55
2018-07-05T17:49:09.525Z,38.42
2018-07-05T17:51:49.631Z,39.24
2018-07-05T17:54:29.358Z,38.93
2018-07-05T17:57:09.057Z,39.18
2018-07-05T17:59:48.590Z,39.30
2018-07-05T18:02:28.134Z,40.09
2018-07-05T18:05:07.701Z,40.25
2018-07-05T18:07:47.508Z,41.20
2018-07-05T18:10:27.359Z,43.44
2018-07-05T18:13:07.054Z,44.61
2018-07-05T18:15:46.689Z,46.39
2018-07-05T18:18:26.249Z,46.74
2018-07-05T18:21:05.868Z,47.77
2018-07-05T18:23:45.442Z,49.09
2018-07-05T18:26:25.227Z,50.30
2018-07-05T18:29:04.819Z,51.10
2018-07-05T18:31:45.535Z,51.42
2018-07-05T18:34:25.071Z,52.14
2018-07-05T18:37:04.547Z,50.92
2018-07-05T18:39:44.476Z,51.25
2018-07-05T18:42:24.003Z,51.44
2018-07-05T18:45:03.442Z,52.46
2018-07-05T18:47:43.356Z,52.94
2018-07-05T18:50:22.830Z,53.76
2018-07-05T18:53:02.324Z,53.57
2018-07-05T18:55:41.882Z,54.09
2018-07-05T18:58:21.336Z,54.88
2018-07-05T19:01:00.714Z,55.10
2018-07-05T19:03:40.241Z,55.50
2018-07-05T19:06:19.742Z,54.88
2018-07-05T19:08:59.279Z,55.46
2018-07-05T19:11:39.774Z,55.59
2018-07-05T19:14:19.247Z,55.60
2018-07-05T19:16:58.650Z,55.71
2018-07-05T19:19:38.601Z,55.39
2018-07-05T19:22:18.574Z,55.26
2018-07-05T19:24:58.306Z,55.71
2018-07-05T19:27:38.122Z,55.97
2018-07-05T19:30:18.223Z,55.85
2018-07-05T19:32:58.054Z,54.97
2018-07-05T19:35:38.435Z,54.59
2018-07-05T19:38:18.030Z,54.08
2018-07-05T19:40:57.681Z,53.97
2018-07-05T19:43:37.082Z,54.97
2018-07-05T19:46:16.957Z,55.24
2018-07-05T19:48:56.542Z,55.94
2018-07-05T19:51:36.136Z,56.31
2018-07-05T19:54:15.714Z,56.44
2018-07-05T19:56:55.308Z,56.62
2018-07-05T19:59:34.721Z,57.35
2018-07-05T20:02:14.282Z,57.95
2018-07-05T20:04:53.830Z,58.89
2018-07-05T20:07:33.477Z,59.97
2018-07-05T20:10:13.029Z,60.49
2018-07-05T20:12:52.519Z,60.34
2018-07-05T20:15:32.035Z,60.86
2018-07-05T20:18:11.744Z,60.69
2018-07-05T20:20:51.312Z,61.17
2018-07-05T20:23:30.822Z,61.93
2018-07-05T20:26:10.399Z,62.57
2018-07-05T20:28:50.070Z,62.43
2018-07-05T20:31:29.479Z,62.91
2018-07-05T20:34:09.024Z,63.40
2018-07-05T20:36:48.703Z,63.45
2018-07-05T20:39:28.222Z,63.10
2018-07-05T20:42:07.719Z,62.95
2018-07-05T20:44:47.205Z,62.63
2018-07-05T20:47:26.797Z,63.07
2018-07-05T20:50:06.215Z,63.00
2018-07-05T20:52:45.793Z,62.13
2018-07-05T20:55:25.357Z,61.96
2018-07-05T20:58:04.900Z,61.03
2018-07-05T21:00:44.473Z,61.19
2018-07-05T21:03:23.886Z,59.95
2018-07-05T21:06:04.438Z,60.01
2018-07-05T21:08:44.020Z,59.68
2018-07-05T21:11:23.663Z,59.30
2018-07-05T21:14:03.358Z,58.94
2018-07-05T21:16:42.918Z,57.94
2018-07-05T21:19:22.458Z,58.16
2018-07-05T21:22:03.141Z,57.59
2018-07-05T21:24:42.757Z,57.55
2018-07-05T21:27:22.473Z,56.94
2018-07-05T21:30:02.126Z,56.45
2018-07-05T21:32:41.688Z,55.66
2018-07-05T21:35:21.139Z,54.61
2018-07-05T21:38:00.666Z,54.00
2018-07-05T21:40:40.234Z,54.01
2018-07-05T21:43:19.876Z,54.14
2018-07-05T21:45:59.421Z,55.13
2018-07-05T21:48:38.906Z,55.72
2018-07-05T21:51:18.456Z,56.54
2018-07-05T21:53:58.017Z,56.48
2018-07-05T21:56:37.551Z,57.46
2018-07-05T21:59:17.068Z,57.71
2018-07-05T22:01:56.608Z,58.41
2018-07-05T22:04:36.104Z,59.42
2018-07-05T22:07:15.846Z,59.82
2018-07-05T22:09:55.330Z,60.93
2018-07-05T22:12:34.729Z,61.44
2018-07-05T22:15:14.215Z,62.07
2018-07-05T22:17:58.981Z,64.19
2018-07-05T22:20:43.846Z,65.76
2018-07-05T22:23:28.526Z,69.42
2018-07-05T22:26:13.218Z,72.43
2018-07-05T22:28:57.867Z,73.97
2018-07-05T22:31:37.282Z,75.46
2018-07-05T22:34:16.850Z,75.78
2018-07-05T22:36:56.375Z,77.15
2018-07-05T22:39:35.880Z,78.41
2018-07-05T22:42:15.452Z,79.92
2018-07-05T22:44:55.011Z,79.92
2018-07-05T22:47:34.531Z,79.47
2018-07-05T22:50:14.295Z,79.95
2018-07-05T22:52:53.841Z,79.32
2018-07-05T22:55:33.574Z,79.66
2018-07-05T22:58:13.110Z,78.88
2018-07-05T23:00:52.551Z,77.42
2018-07-05T23:03:32.009Z,77.08
2018-07-05T23:06:11.641Z,77.89
2018-07-05T23:08:51.093Z,79.09
2018-07-05T23:11:30.610Z,78.01
2018-07-05T23:14:10.028Z,77.82
2018-07-05T23:16:49.546Z,78.31
2018-07-05T23:19:29.141Z,78.43
2018-07-05T23:22:08.703Z,77.52
2018-07-05T23:24:48.214Z,78.21
2018-07-05T23:27:27.685Z,80.20
2018-07-05T23:30:07.402Z,79.50
2018-07-05T23:32:47.006Z,79.84
2018-07-05T23:35:26.434Z,80.04
2018-07-05T23:38:05.925Z,79.78
2018-07-05T23:40:45.355Z,80.00
2018-07-05T23:43:24.924Z,79.90
2018-07-05T23:46:04.440Z,79.26
2018-07-05T23:48:43.957Z,80.24
2018-07-05T23:51:23.364Z,80.52
2018-07-05T23:54:03.002Z,79.77
2018-07-05T23:56:42.419Z,79.23
2018-07-05T23:59:21.894Z,79.86
